CheckWX is a tool to help pilots better visualize weather data.  It is not intended as a substitute for an official pre-flight weather briefing.

20:50:37 UTC

VRMM TAF
Malé International Airport
Malé, Maldives
TAF VRMM 221700Z 2218/2324 08012KT 9999 FEW018 TEMPO 2218/2224 FEW018CB

Mar-22@
18:00 UTC

Mar-22 @ 18:00 UTC

Mar-24@
00:00 UTC

Mar-24 @ 00:00 UTC

TAF VRMM 221700Z 2218/2324 08012KT 9999 FEW018
Wind
  • 080° at 12 KTS
Cloud Levels
  • Few at 1,800' AGL

Mar-22@
18:00 UTC

Mar-22 @ 18:00 UTC

Mar-23@
00:00 UTC

Mar-23 @ 00:00 UTC

TEMPO 2218/2224 FEW018CB

Temporary

Temporary Changes expected for less than half the time period

Cloud Levels
  • Few at 1,800' AGL